sensor_id;sensor_type;location;lat;lon;timestamp;P1;durP1;ratioP1;P2;durP2;ratioP2
38435;SDS011;24220;48.168;14.024;2022-09-27T00:02:00;5.65;;;3.85;;
38435;SDS011;24220;48.168;14.024;2022-09-27T00:04:27;4.20;;;3.55;;
38435;SDS011;24220;48.168;14.024;2022-09-27T00:07:01;4.18;;;3.53;;
38435;SDS011;24220;48.168;14.024;2022-09-27T00:09:29;3.80;;;3.50;;
38435;SDS011;24220;48.168;14.024;2022-09-27T00:11:56;4.30;;;3.40;;
38435;SDS011;24220;48.168;14.024;2022-09-27T00:14:27;4.43;;;3.63;;
38435;SDS011;24220;48.168;14.024;2022-09-27T00:16:55;5.05;;;3.80;;
38435;SDS011;24220;48.168;14.024;2022-09-27T00:19:27;3.47;;;3.17;;
38435;SDS011;24220;48.168;14.024;2022-09-27T00:21:55;3.53;;;3.22;;
38435;SDS011;24220;48.168;14.024;2022-09-27T00:24:27;4.38;;;3.30;;
38435;SDS011;24220;48.168;14.024;2022-09-27T00:26:57;4.43;;;3.30;;
38435;SDS011;24220;48.168;14.024;2022-09-27T00:29:28;6.80;;;3.65;;
38435;SDS011;24220;48.168;14.024;2022-09-27T00:31:55;3.90;;;3.50;;
38435;SDS011;24220;48.168;14.024;2022-09-27T00:34:26;4.40;;;3.95;;
38435;SDS011;24220;48.168;14.024;2022-09-27T00:36:53;4.65;;;3.40;;
38435;SDS011;24220;48.168;14.024;2022-09-27T00:39:23;4.07;;;3.58;;
38435;SDS011;24220;48.168;14.024;2022-09-27T00:41:55;4.78;;;3.50;;
38435;SDS011;24220;48.168;14.024;2022-09-27T00:49:53;4.40;;;3.25;;
38435;SDS011;24220;48.168;14.024;2022-09-27T00:52:34;4.28;;;3.63;;
38435;SDS011;24220;48.168;14.024;2022-09-27T00:55:10;4.53;;;3.80;;
38435;SDS011;24220;48.168;14.024;2022-09-27T00:57:48;4.03;;;3.65;;
38435;SDS011;24220;48.168;14.024;2022-09-27T01:00:17;3.67;;;3.33;;
38435;SDS011;24220;48.168;14.024;2022-09-27T01:02:46;5.63;;;4.13;;
38435;SDS011;24220;48.168;14.024;2022-09-27T01:05:17;5.72;;;3.92;;
38435;SDS011;24220;48.168;14.024;2022-09-27T01:07:50;5.28;;;3.80;;
38435;SDS011;24220;48.168;14.024;2022-09-27T01:10:22;4.72;;;3.92;;
38435;SDS011;24220;48.168;14.024;2022-09-27T01:16:08;5.05;;;3.65;;
38435;SDS011;24220;48.168;14.024;2022-09-27T01:24:12;5.30;;;4.00;;
38435;SDS011;24220;48.168;14.024;2022-09-27T01:29:58;5.47;;;3.95;;
38435;SDS011;24220;48.168;14.024;2022-09-27T01:33:05;4.78;;;3.95;;
38435;SDS011;24220;48.168;14.024;2022-09-27T01:44:36;5.32;;;4.10;;
38435;SDS011;24220;48.168;14.024;2022-09-27T01:47:22;4.50;;;3.90;;
38435;SDS011;24220;48.168;14.024;2022-09-27T01:50:02;4.10;;;3.70;;
38435;SDS011;24220;48.168;14.024;2022-09-27T01:52:36;4.80;;;4.18;;
38435;SDS011;24220;48.168;14.024;2022-09-27T01:55:11;4.43;;;4.03;;
38435;SDS011;24220;48.168;14.024;2022-09-27T01:57:42;4.55;;;4.15;;
38435;SDS011;24220;48.168;14.024;2022-09-27T02:00:16;4.35;;;3.95;;
38435;SDS011;24220;48.168;14.024;2022-09-27T02:05:20;4.05;;;3.65;;
38435;SDS011;24220;48.168;14.024;2022-09-27T02:08:00;4.95;;;4.28;;
38435;SDS011;24220;48.168;14.024;2022-09-27T02:10:33;5.07;;;4.22;;
38435;SDS011;24220;48.168;14.024;2022-09-27T02:18:50;4.80;;;4.30;;
38435;SDS011;24220;48.168;14.024;2022-09-27T02:21:24;5.18;;;4.38;;
38435;SDS011;24220;48.168;14.024;2022-09-27T02:24:01;6.32;;;4.60;;
38435;SDS011;24220;48.168;14.024;2022-09-27T02:26:37;5.55;;;5.05;;
38435;SDS011;24220;48.168;14.024;2022-09-27T02:29:14;5.65;;;5.15;;
38435;SDS011;24220;48.168;14.024;2022-09-27T02:31:48;5.15;;;4.65;;
38435;SDS011;24220;48.168;14.024;2022-09-27T02:34:20;5.22;;;4.72;;
38435;SDS011;24220;48.168;14.024;2022-09-27T02:36:50;5.78;;;5.10;;
38435;SDS011;24220;48.168;14.024;2022-09-27T02:39:19;5.85;;;4.93;;
38435;SDS011;24220;48.168;14.024;2022-09-27T02:41:49;6.47;;;5.65;;
38435;SDS011;24220;48.168;14.024;2022-09-27T02:44:17;6.60;;;5.72;;
38435;SDS011;24220;48.168;14.024;2022-09-27T02:46:54;6.20;;;5.60;;
38435;SDS011;24220;48.168;14.024;2022-09-27T02:49:48;6.00;;;5.40;;
38435;SDS011;24220;48.168;14.024;2022-09-27T02:55:43;6.72;;;5.78;;
38435;SDS011;24220;48.168;14.024;2022-09-27T02:58:29;9.50;;;6.70;;
38435;SDS011;24220;48.168;14.024;2022-09-27T03:01:11;8.88;;;6.68;;
38435;SDS011;24220;48.168;14.024;2022-09-27T03:04:17;7.53;;;6.78;;
38435;SDS011;24220;48.168;14.024;2022-09-27T03:06:51;7.72;;;6.70;;
38435;SDS011;24220;48.168;14.024;2022-09-27T03:09:21;10.00;;;7.35;;
38435;SDS011;24220;48.168;14.024;2022-09-27T03:11:51;7.82;;;7.03;;
38435;SDS011;24220;48.168;14.024;2022-09-27T03:14:19;7.82;;;7.00;;
38435;SDS011;24220;48.168;14.024;2022-09-27T03:16:49;7.90;;;7.10;;
38435;SDS011;24220;48.168;14.024;2022-09-27T03:19:17;9.05;;;7.53;;
38435;SDS011;24220;48.168;14.024;2022-09-27T03:21:44;7.60;;;6.90;;
38435;SDS011;24220;48.168;14.024;2022-09-27T03:24:15;8.57;;;7.68;;
38435;SDS011;24220;48.168;14.024;2022-09-27T03:26:43;12.40;;;7.88;;
38435;SDS011;24220;48.168;14.024;2022-09-27T03:29:10;9.48;;;7.13;;
38435;SDS011;24220;48.168;14.024;2022-09-27T03:31:38;9.32;;;7.18;;
38435;SDS011;24220;48.168;14.024;2022-09-27T03:34:06;8.63;;;7.00;;
38435;SDS011;24220;48.168;14.024;2022-09-27T03:36:37;7.03;;;6.32;;
38435;SDS011;24220;48.168;14.024;2022-09-27T03:39:04;8.57;;;7.75;;
38435;SDS011;24220;48.168;14.024;2022-09-27T03:41:32;8.68;;;7.45;;
38435;SDS011;24220;48.168;14.024;2022-09-27T03:44:01;8.57;;;7.75;;
38435;SDS011;24220;48.168;14.024;2022-09-27T03:46:29;8.77;;;7.88;;
38435;SDS011;24220;48.168;14.024;2022-09-27T03:48:57;9.20;;;7.72;;
38435;SDS011;24220;48.168;14.024;2022-09-27T03:51:27;8.85;;;7.50;;
38435;SDS011;24220;48.168;14.024;2022-09-27T03:53:57;8.98;;;7.93;;
38435;SDS011;24220;48.168;14.024;2022-09-27T03:56:27;8.25;;;7.47;;
38435;SDS011;24220;48.168;14.024;2022-09-27T03:58:57;7.85;;;7.05;;
38435;SDS011;24220;48.168;14.024;2022-09-27T04:01:24;9.82;;;7.57;;
38435;SDS011;24220;48.168;14.024;2022-09-27T04:03:54;8.48;;;7.68;;
38435;SDS011;24220;48.168;14.024;2022-09-27T04:06:22;8.65;;;7.43;;
38435;SDS011;24220;48.168;14.024;2022-09-27T04:08:52;8.25;;;7.53;;
38435;SDS011;24220;48.168;14.024;2022-09-27T04:11:22;8.75;;;7.80;;
38435;SDS011;24220;48.168;14.024;2022-09-27T04:13:50;9.48;;;8.57;;
38435;SDS011;24220;48.168;14.024;2022-09-27T04:16:17;8.75;;;7.85;;
38435;SDS011;24220;48.168;14.024;2022-09-27T04:18:45;10.90;;;8.73;;
38435;SDS011;24220;48.168;14.024;2022-09-27T04:21:17;9.40;;;8.50;;
38435;SDS011;24220;48.168;14.024;2022-09-27T04:23:48;10.10;;;8.40;;
38435;SDS011;24220;48.168;14.024;2022-09-27T04:26:22;9.88;;;8.88;;
38435;SDS011;24220;48.168;14.024;2022-09-27T04:28:50;9.48;;;8.23;;
38435;SDS011;24220;48.168;14.024;2022-09-27T04:31:20;9.40;;;8.40;;
38435;SDS011;24220;48.168;14.024;2022-09-27T04:33:50;10.00;;;8.60;;
38435;SDS011;24220;48.168;14.024;2022-09-27T04:36:20;10.07;;;9.00;;
38435;SDS011;24220;48.168;14.024;2022-09-27T04:38:57;9.57;;;8.63;;
38435;SDS011;24220;48.168;14.024;2022-09-27T04:41:27;10.38;;;9.10;;
38435;SDS011;24220;48.168;14.024;2022-09-27T04:43:57;10.75;;;9.68;;
38435;SDS011;24220;48.168;14.024;2022-09-27T04:46:28;13.98;;;12.48;;
38435;SDS011;24220;48.168;14.024;2022-09-27T04:48:59;11.40;;;9.95;;
38435;SDS011;24220;48.168;14.024;2022-09-27T04:51:29;9.25;;;8.25;;
38435;SDS011;24220;48.168;14.024;2022-09-27T04:53:56;9.07;;;8.23;;
38435;SDS011;24220;48.168;14.024;2022-09-27T04:56:24;10.50;;;8.35;;
38435;SDS011;24220;48.168;14.024;2022-09-27T04:58:53;9.55;;;8.20;;
38435;SDS011;24220;48.168;14.024;2022-09-27T05:01:20;9.13;;;8.27;;
38435;SDS011;24220;48.168;14.024;2022-09-27T05:03:48;13.27;;;9.23;;
38435;SDS011;24220;48.168;14.024;2022-09-27T05:06:16;12.50;;;10.45;;
38435;SDS011;24220;48.168;14.024;2022-09-27T05:08:43;14.40;;;10.63;;
38435;SDS011;24220;48.168;14.024;2022-09-27T05:11:11;13.13;;;11.05;;
38435;SDS011;24220;48.168;14.024;2022-09-27T05:13:38;12.70;;;11.02;;
38435;SDS011;24220;48.168;14.024;2022-09-27T05:16:06;14.82;;;12.13;;
38435;SDS011;24220;48.168;14.024;2022-09-27T05:18:34;13.93;;;12.52;;
38435;SDS011;24220;48.168;14.024;2022-09-27T05:21:01;14.32;;;12.30;;
38435;SDS011;24220;48.168;14.024;2022-09-27T05:23:28;17.02;;;13.60;;
38435;SDS011;24220;48.168;14.024;2022-09-27T05:25:56;15.35;;;13.75;;
38435;SDS011;24220;48.168;14.024;2022-09-27T05:28:26;14.38;;;12.98;;
38435;SDS011;24220;48.168;14.024;2022-09-27T05:30:53;15.32;;;13.43;;
38435;SDS011;24220;48.168;14.024;2022-09-27T05:33:21;14.18;;;12.48;;
38435;SDS011;24220;48.168;14.024;2022-09-27T05:35:52;13.27;;;11.98;;
38435;SDS011;24220;48.168;14.024;2022-09-27T05:38:21;13.93;;;12.55;;
38435;SDS011;24220;48.168;14.024;2022-09-27T05:40:51;13.52;;;12.13;;
38435;SDS011;24220;48.168;14.024;2022-09-27T05:43:21;13.43;;;11.90;;
38435;SDS011;24220;48.168;14.024;2022-09-27T05:45:50;12.23;;;11.00;;
38435;SDS011;24220;48.168;14.024;2022-09-27T05:48:19;11.95;;;9.43;;
38435;SDS011;24220;48.168;14.024;2022-09-27T05:50:47;11.98;;;9.20;;
38435;SDS011;24220;48.168;14.024;2022-09-27T05:53:14;8.85;;;7.82;;
38435;SDS011;24220;48.168;14.024;2022-09-27T05:55:42;6.97;;;6.28;;
38435;SDS011;24220;48.168;14.024;2022-09-27T05:58:09;5.18;;;4.72;;
38435;SDS011;24220;48.168;14.024;2022-09-27T06:00:39;7.88;;;4.45;;
38435;SDS011;24220;48.168;14.024;2022-09-27T06:03:06;5.15;;;4.20;;
38435;SDS011;24220;48.168;14.024;2022-09-27T06:05:37;5.45;;;3.80;;
38435;SDS011;24220;48.168;14.024;2022-09-27T06:08:09;4.15;;;3.72;;
38435;SDS011;24220;48.168;14.024;2022-09-27T06:10:37;6.10;;;3.65;;
38435;SDS011;24220;48.168;14.024;2022-09-27T06:13:11;6.25;;;3.85;;
38435;SDS011;24220;48.168;14.024;2022-09-27T06:15:41;3.97;;;3.65;;
38435;SDS011;24220;48.168;14.024;2022-09-27T06:18:12;4.60;;;3.72;;
38435;SDS011;24220;48.168;14.024;2022-09-27T06:20:43;5.07;;;3.80;;
38435;SDS011;24220;48.168;14.024;2022-09-27T06:23:15;9.88;;;3.75;;
38435;SDS011;24220;48.168;14.024;2022-09-27T06:25:44;5.40;;;3.50;;
38435;SDS011;24220;48.168;14.024;2022-09-27T06:28:13;3.58;;;3.03;;
38435;SDS011;24220;48.168;14.024;2022-09-27T06:30:44;4.88;;;3.00;;
38435;SDS011;24220;48.168;14.024;2022-09-27T06:33:14;4.88;;;2.95;;
38435;SDS011;24220;48.168;14.024;2022-09-27T06:35:43;4.00;;;3.20;;
38435;SDS011;24220;48.168;14.024;2022-09-27T06:38:16;4.13;;;2.90;;
38435;SDS011;24220;48.168;14.024;2022-09-27T06:40:46;4.05;;;2.83;;
38435;SDS011;24220;48.168;14.024;2022-09-27T06:43:15;3.30;;;2.92;;
38435;SDS011;24220;48.168;14.024;2022-09-27T06:45:48;4.10;;;3.00;;
38435;SDS011;24220;48.168;14.024;2022-09-27T06:48:16;4.47;;;2.92;;
38435;SDS011;24220;48.168;14.024;2022-09-27T06:50:45;3.80;;;2.80;;
38435;SDS011;24220;48.168;14.024;2022-09-27T06:53:17;2.65;;;2.45;;
38435;SDS011;24220;48.168;14.024;2022-09-27T06:55:44;3.97;;;3.03;;
38435;SDS011;24220;48.168;14.024;2022-09-27T06:58:12;3.20;;;2.72;;
38435;SDS011;24220;48.168;14.024;2022-09-27T07:00:58;4.45;;;3.13;;
38435;SDS011;24220;48.168;14.024;2022-09-27T07:03:28;4.90;;;3.17;;
38435;SDS011;24220;48.168;14.024;2022-09-27T07:06:07;4.25;;;2.63;;
38435;SDS011;24220;48.168;14.024;2022-09-27T07:08:44;4.07;;;3.00;;
38435;SDS011;24220;48.168;14.024;2022-09-27T07:11:17;3.55;;;2.78;;
38435;SDS011;24220;48.168;14.024;2022-09-27T07:13:49;3.13;;;2.70;;
38435;SDS011;24220;48.168;14.024;2022-09-27T07:16:20;3.08;;;2.53;;
38435;SDS011;24220;48.168;14.024;2022-09-27T07:18:48;3.15;;;2.50;;
38435;SDS011;24220;48.168;14.024;2022-09-27T07:21:16;3.72;;;2.83;;
38435;SDS011;24220;48.168;14.024;2022-09-27T07:23:43;3.67;;;2.90;;
38435;SDS011;24220;48.168;14.024;2022-09-27T07:26:12;4.30;;;3.00;;
38435;SDS011;24220;48.168;14.024;2022-09-27T07:28:39;4.43;;;3.28;;
38435;SDS011;24220;48.168;14.024;2022-09-27T07:31:11;3.42;;;2.80;;
38435;SDS011;24220;48.168;14.024;2022-09-27T07:33:43;4.32;;;3.22;;
38435;SDS011;24220;48.168;14.024;2022-09-27T07:36:13;3.20;;;2.90;;
38435;SDS011;24220;48.168;14.024;2022-09-27T07:38:40;3.92;;;2.90;;
38435;SDS011;24220;48.168;14.024;2022-09-27T07:41:09;3.20;;;2.80;;
38435;SDS011;24220;48.168;14.024;2022-09-27T07:43:45;6.75;;;3.05;;
38435;SDS011;24220;48.168;14.024;2022-09-27T07:46:12;2.90;;;2.60;;
38435;SDS011;24220;48.168;14.024;2022-09-27T07:48:40;4.05;;;2.72;;
38435;SDS011;24220;48.168;14.024;2022-09-27T07:51:08;4.40;;;3.17;;
38435;SDS011;24220;48.168;14.024;2022-09-27T07:53:37;4.07;;;3.03;;
38435;SDS011;24220;48.168;14.024;2022-09-27T07:56:06;3.35;;;2.90;;
38435;SDS011;24220;48.168;14.024;2022-09-27T07:58:33;6.32;;;3.35;;
38435;SDS011;24220;48.168;14.024;2022-09-27T08:01:01;3.97;;;3.28;;
38435;SDS011;24220;48.168;14.024;2022-09-27T08:03:28;4.28;;;3.22;;
38435;SDS011;24220;48.168;14.024;2022-09-27T08:06:02;3.97;;;3.45;;
38435;SDS011;24220;48.168;14.024;2022-09-27T08:08:30;5.05;;;3.70;;
38435;SDS011;24220;48.168;14.024;2022-09-27T08:10:59;5.03;;;3.50;;
38435;SDS011;24220;48.168;14.024;2022-09-27T08:13:27;3.35;;;2.85;;
38435;SDS011;24220;48.168;14.024;2022-09-27T08:15:59;3.53;;;3.20;;
38435;SDS011;24220;48.168;14.024;2022-09-27T08:18:27;3.33;;;3.03;;
38435;SDS011;24220;48.168;14.024;2022-09-27T08:20:58;3.40;;;3.10;;
38435;SDS011;24220;48.168;14.024;2022-09-27T08:23:26;4.85;;;3.42;;
38435;SDS011;24220;48.168;14.024;2022-09-27T08:25:54;3.47;;;3.05;;
38435;SDS011;24220;48.168;14.024;2022-09-27T08:28:26;4.25;;;3.28;;
38435;SDS011;24220;48.168;14.024;2022-09-27T08:30:57;4.25;;;2.80;;
38435;SDS011;24220;48.168;14.024;2022-09-27T08:33:26;5.28;;;3.50;;
38435;SDS011;24220;48.168;14.024;2022-09-27T08:35:59;3.45;;;2.78;;
38435;SDS011;24220;48.168;14.024;2022-09-27T08:38:27;4.20;;;2.70;;
38435;SDS011;24220;48.168;14.024;2022-09-27T08:40:56;3.00;;;2.70;;
38435;SDS011;24220;48.168;14.024;2022-09-27T08:49:16;3.22;;;2.88;;
38435;SDS011;24220;48.168;14.024;2022-09-27T08:51:53;6.43;;;2.72;;
38435;SDS011;24220;48.168;14.024;2022-09-27T08:54:24;2.72;;;2.20;;
38435;SDS011;24220;48.168;14.024;2022-09-27T08:56:59;2.28;;;1.85;;
38435;SDS011;24220;48.168;14.024;2022-09-27T08:59:39;2.42;;;2.08;;
38435;SDS011;24220;48.168;14.024;2022-09-27T09:02:26;2.78;;;2.33;;
38435;SDS011;24220;48.168;14.024;2022-09-27T09:04:59;5.20;;;2.00;;
38435;SDS011;24220;48.168;14.024;2022-09-27T09:10:44;4.32;;;1.75;;
38435;SDS011;24220;48.168;14.024;2022-09-27T09:13:56;2.03;;;1.75;;
38435;SDS011;24220;48.168;14.024;2022-09-27T09:36:10;1.30;;;1.20;;
38435;SDS011;24220;48.168;14.024;2022-09-27T09:38:44;1.20;;;1.00;;
38435;SDS011;24220;48.168;14.024;2022-09-27T09:46:38;1.23;;;1.13;;
38435;SDS011;24220;48.168;14.024;2022-09-27T09:49:32;2.00;;;1.23;;
38435;SDS011;24220;48.168;14.024;2022-09-27T09:52:10;1.85;;;1.20;;
38435;SDS011;24220;48.168;14.024;2022-09-27T09:57:37;0.77;;;0.77;;
38435;SDS011;24220;48.168;14.024;2022-09-27T10:00:13;1.27;;;1.00;;
38435;SDS011;24220;48.168;14.024;2022-09-27T10:02:49;2.28;;;1.00;;
38435;SDS011;24220;48.168;14.024;2022-09-27T10:05:21;1.52;;;1.17;;
38435;SDS011;24220;48.168;14.024;2022-09-27T10:07:51;0.88;;;0.80;;
38435;SDS011;24220;48.168;14.024;2022-09-27T10:10:20;2.30;;;0.90;;
38435;SDS011;24220;48.168;14.024;2022-09-27T10:12:48;0.90;;;0.80;;
38435;SDS011;24220;48.168;14.024;2022-09-27T10:15:17;1.27;;;0.90;;
38435;SDS011;24220;48.168;14.024;2022-09-27T10:17:47;1.52;;;0.90;;
38435;SDS011;24220;48.168;14.024;2022-09-27T10:28:29;0.98;;;0.70;;
38435;SDS011;24220;48.168;14.024;2022-09-27T10:31:17;1.23;;;0.80;;
38435;SDS011;24220;48.168;14.024;2022-09-27T10:34:04;1.00;;;0.70;;
38435;SDS011;24220;48.168;14.024;2022-09-27T10:36:34;1.50;;;0.90;;
38435;SDS011;24220;48.168;14.024;2022-09-27T10:39:03;2.13;;;0.90;;
38435;SDS011;24220;48.168;14.024;2022-09-27T10:41:46;0.77;;;0.60;;
38435;SDS011;24220;48.168;14.024;2022-09-27T10:46:53;2.75;;;0.75;;
38435;SDS011;24220;48.168;14.024;2022-09-27T10:49:25;1.65;;;0.60;;
38435;SDS011;24220;48.168;14.024;2022-09-27T10:51:57;1.63;;;0.70;;
38435;SDS011;24220;48.168;14.024;2022-09-27T10:54:33;2.83;;;0.63;;
38435;SDS011;24220;48.168;14.024;2022-09-27T10:57:04;0.68;;;0.55;;
38435;SDS011;24220;48.168;14.024;2022-09-27T10:59:42;0.93;;;0.57;;
38435;SDS011;24220;48.168;14.024;2022-09-27T11:02:28;0.95;;;0.68;;
38435;SDS011;24220;48.168;14.024;2022-09-27T11:05:11;1.77;;;0.50;;
38435;SDS011;24220;48.168;14.024;2022-09-27T11:08:02;1.30;;;0.50;;
38435;SDS011;24220;48.168;14.024;2022-09-27T11:13:58;0.70;;;0.52;;
38435;SDS011;24220;48.168;14.024;2022-09-27T11:30:14;1.40;;;0.50;;
38435;SDS011;24220;48.168;14.024;2022-09-27T11:41:35;1.15;;;0.50;;
38435;SDS011;24220;48.168;14.024;2022-09-27T11:49:47;0.50;;;0.50;;
38435;SDS011;24220;48.168;14.024;2022-09-27T11:52:52;1.02;;;0.50;;
38435;SDS011;24220;48.168;14.024;2022-09-27T12:00:45;0.30;;;0.30;;
38435;SDS011;24220;48.168;14.024;2022-09-27T12:06:34;0.43;;;0.43;;
38435;SDS011;24220;48.168;14.024;2022-09-27T12:09:22;1.17;;;0.50;;
38435;SDS011;24220;48.168;14.024;2022-09-27T12:12:01;1.88;;;0.80;;
38435;SDS011;24220;48.168;14.024;2022-09-27T12:14:34;0.85;;;0.57;;
38435;SDS011;24220;48.168;14.024;2022-09-27T12:17:22;2.47;;;0.50;;
38435;SDS011;24220;48.168;14.024;2022-09-27T12:19:54;1.80;;;1.00;;
38435;SDS011;24220;48.168;14.024;2022-09-27T12:22:35;0.50;;;0.40;;
38435;SDS011;24220;48.168;14.024;2022-09-27T12:25:28;0.50;;;0.22;;
38435;SDS011;24220;48.168;14.024;2022-09-27T12:28:08;0.32;;;0.30;;
38435;SDS011;24220;48.168;14.024;2022-09-27T12:30:39;0.25;;;0.25;;
38435;SDS011;24220;48.168;14.024;2022-09-27T12:33:16;0.20;;;0.20;;
38435;SDS011;24220;48.168;14.024;2022-09-27T12:35:49;0.73;;;0.20;;
38435;SDS011;24220;48.168;14.024;2022-09-27T12:41:06;1.17;;;0.70;;
38435;SDS011;24220;48.168;14.024;2022-09-27T12:43:37;0.90;;;0.50;;
38435;SDS011;24220;48.168;14.024;2022-09-27T12:46:19;0.63;;;0.30;;
38435;SDS011;24220;48.168;14.024;2022-09-27T12:52:13;0.50;;;0.50;;
38435;SDS011;24220;48.168;14.024;2022-09-27T12:57:50;0.50;;;0.30;;
38435;SDS011;24220;48.168;14.024;2022-09-27T13:00:41;0.43;;;0.32;;
38435;SDS011;24220;48.168;14.024;2022-09-27T13:09:22;0.40;;;0.40;;
38435;SDS011;24220;48.168;14.024;2022-09-27T13:12:16;0.90;;;0.30;;
38435;SDS011;24220;48.168;14.024;2022-09-27T13:15:02;0.98;;;0.55;;
38435;SDS011;24220;48.168;14.024;2022-09-27T13:22:58;0.38;;;0.38;;
38435;SDS011;24220;48.168;14.024;2022-09-27T13:31:09;0.70;;;0.43;;
38435;SDS011;24220;48.168;14.024;2022-09-27T13:33:51;0.90;;;0.40;;
38435;SDS011;24220;48.168;14.024;2022-09-27T13:41:36;0.63;;;0.40;;
38435;SDS011;24220;48.168;14.024;2022-09-27T13:46:55;1.25;;;0.50;;
38435;SDS011;24220;48.168;14.024;2022-09-27T13:49:38;1.63;;;0.50;;
38435;SDS011;24220;48.168;14.024;2022-09-27T13:52:18;1.52;;;0.85;;
38435;SDS011;24220;48.168;14.024;2022-09-27T14:00:21;0.68;;;0.40;;
38435;SDS011;24220;48.168;14.024;2022-09-27T14:03:21;1.00;;;0.50;;
38435;SDS011;24220;48.168;14.024;2022-09-27T14:06:04;0.32;;;0.30;;
38435;SDS011;24220;48.168;14.024;2022-09-27T14:08:41;0.40;;;0.40;;
38435;SDS011;24220;48.168;14.024;2022-09-27T14:11:13;0.55;;;0.50;;
38435;SDS011;24220;48.168;14.024;2022-09-27T14:13:44;0.85;;;0.50;;
38435;SDS011;24220;48.168;14.024;2022-09-27T14:16:17;0.40;;;0.40;;
38435;SDS011;24220;48.168;14.024;2022-09-27T14:18:50;0.85;;;0.40;;
38435;SDS011;24220;48.168;14.024;2022-09-27T14:21:28;1.55;;;0.50;;
38435;SDS011;24220;48.168;14.024;2022-09-27T14:27:09;1.35;;;0.47;;
38435;SDS011;24220;48.168;14.024;2022-09-27T14:29:44;5.72;;;0.57;;
38435;SDS011;24220;48.168;14.024;2022-09-27T14:32:15;0.60;;;0.60;;
38435;SDS011;24220;48.168;14.024;2022-09-27T14:34:46;0.90;;;0.60;;
38435;SDS011;24220;48.168;14.024;2022-09-27T14:38:07;1.95;;;0.60;;
38435;SDS011;24220;48.168;14.024;2022-09-27T14:40:59;0.70;;;0.50;;
38435;SDS011;24220;48.168;14.024;2022-09-27T14:43:28;1.13;;;0.70;;
38435;SDS011;24220;48.168;14.024;2022-09-27T14:46:01;0.40;;;0.40;;
38435;SDS011;24220;48.168;14.024;2022-09-27T14:51:03;0.50;;;0.40;;
38435;SDS011;24220;48.168;14.024;2022-09-27T14:53:43;0.55;;;0.43;;
38435;SDS011;24220;48.168;14.024;2022-09-27T14:56:20;0.47;;;0.40;;
38435;SDS011;24220;48.168;14.024;2022-09-27T14:58:54;1.38;;;0.40;;
38435;SDS011;24220;48.168;14.024;2022-09-27T15:01:35;0.35;;;0.35;;
38435;SDS011;24220;48.168;14.024;2022-09-27T15:04:06;0.98;;;0.63;;
38435;SDS011;24220;48.168;14.024;2022-09-27T15:06:39;0.60;;;0.50;;
38435;SDS011;24220;48.168;14.024;2022-09-27T15:09:15;1.58;;;0.60;;
38435;SDS011;24220;48.168;14.024;2022-09-27T15:11:52;0.98;;;0.70;;
38435;SDS011;24220;48.168;14.024;2022-09-27T15:14:26;0.80;;;0.80;;
38435;SDS011;24220;48.168;14.024;2022-09-27T15:16:59;0.80;;;0.80;;
38435;SDS011;24220;48.168;14.024;2022-09-27T15:19:31;0.50;;;0.50;;
38435;SDS011;24220;48.168;14.024;2022-09-27T15:27:53;1.13;;;0.40;;
38435;SDS011;24220;48.168;14.024;2022-09-27T15:30:25;0.40;;;0.40;;
38435;SDS011;24220;48.168;14.024;2022-09-27T15:32:56;0.75;;;0.60;;
38435;SDS011;24220;48.168;14.024;2022-09-27T15:35:25;1.80;;;1.02;;
38435;SDS011;24220;48.168;14.024;2022-09-27T15:38:42;1.63;;;0.70;;
38435;SDS011;24220;48.168;14.024;2022-09-27T15:41:02;1.55;;;0.40;;
38435;SDS011;24220;48.168;14.024;2022-09-27T15:43:39;0.80;;;0.80;;
38435;SDS011;24220;48.168;14.024;2022-09-27T15:51:45;2.22;;;0.80;;
38435;SDS011;24220;48.168;14.024;2022-09-27T15:54:16;0.55;;;0.40;;
38435;SDS011;24220;48.168;14.024;2022-09-27T15:56:46;1.05;;;0.60;;
38435;SDS011;24220;48.168;14.024;2022-09-27T15:59:26;0.60;;;0.55;;
38435;SDS011;24220;48.168;14.024;2022-09-27T16:02:03;1.27;;;0.90;;
38435;SDS011;24220;48.168;14.024;2022-09-27T16:04:45;0.88;;;0.73;;
38435;SDS011;24220;48.168;14.024;2022-09-27T16:07:12;0.93;;;0.70;;
38435;SDS011;24220;48.168;14.024;2022-09-27T16:09:40;1.00;;;0.68;;
38435;SDS011;24220;48.168;14.024;2022-09-27T16:12:09;1.60;;;0.60;;
38435;SDS011;24220;48.168;14.024;2022-09-27T16:14:36;1.48;;;0.70;;
38435;SDS011;24220;48.168;14.024;2022-09-27T16:17:04;2.25;;;1.10;;
38435;SDS011;24220;48.168;14.024;2022-09-27T16:19:31;1.02;;;0.88;;
38435;SDS011;24220;48.168;14.024;2022-09-27T16:21:59;1.20;;;1.00;;
38435;SDS011;24220;48.168;14.024;2022-09-27T16:24:29;1.77;;;0.85;;
38435;SDS011;24220;48.168;14.024;2022-09-27T16:26:57;0.80;;;0.70;;
38435;SDS011;24220;48.168;14.024;2022-09-27T16:29:26;0.82;;;0.80;;
38435;SDS011;24220;48.168;14.024;2022-09-27T16:31:54;0.93;;;0.70;;
38435;SDS011;24220;48.168;14.024;2022-09-27T16:34:22;0.60;;;0.60;;
38435;SDS011;24220;48.168;14.024;2022-09-27T16:36:50;1.40;;;0.80;;
38435;SDS011;24220;48.168;14.024;2022-09-27T16:39:22;0.68;;;0.60;;
38435;SDS011;24220;48.168;14.024;2022-09-27T16:41:49;1.63;;;0.80;;
38435;SDS011;24220;48.168;14.024;2022-09-27T16:44:18;2.38;;;0.90;;
38435;SDS011;24220;48.168;14.024;2022-09-27T16:46:49;1.40;;;1.00;;
38435;SDS011;24220;48.168;14.024;2022-09-27T16:49:17;1.10;;;0.93;;
38435;SDS011;24220;48.168;14.024;2022-09-27T16:52:02;1.38;;;0.95;;
38435;SDS011;24220;48.168;14.024;2022-09-27T16:54:30;1.30;;;0.90;;
38435;SDS011;24220;48.168;14.024;2022-09-27T16:56:58;2.20;;;0.93;;
38435;SDS011;24220;48.168;14.024;2022-09-27T16:59:25;1.20;;;1.00;;
38435;SDS011;24220;48.168;14.024;2022-09-27T17:01:53;1.88;;;1.05;;
38435;SDS011;24220;48.168;14.024;2022-09-27T17:04:24;2.70;;;1.40;;
38435;SDS011;24220;48.168;14.024;2022-09-27T17:06:53;2.97;;;1.45;;
38435;SDS011;24220;48.168;14.024;2022-09-27T17:09:22;2.47;;;1.33;;
38435;SDS011;24220;48.168;14.024;2022-09-27T17:11:49;2.33;;;1.50;;
38435;SDS011;24220;48.168;14.024;2022-09-27T17:14:21;2.03;;;1.30;;
38435;SDS011;24220;48.168;14.024;2022-09-27T17:16:52;3.35;;;1.60;;
38435;SDS011;24220;48.168;14.024;2022-09-27T17:19:19;5.10;;;1.73;;
38435;SDS011;24220;48.168;14.024;2022-09-27T17:21:48;2.20;;;1.77;;
38435;SDS011;24220;48.168;14.024;2022-09-27T17:24:16;2.35;;;1.98;;
38435;SDS011;24220;48.168;14.024;2022-09-27T17:26:44;3.60;;;2.40;;
38435;SDS011;24220;48.168;14.024;2022-09-27T17:29:11;3.10;;;2.28;;
38435;SDS011;24220;48.168;14.024;2022-09-27T17:31:40;3.55;;;2.20;;
38435;SDS011;24220;48.168;14.024;2022-09-27T17:34:08;5.50;;;2.10;;
38435;SDS011;24220;48.168;14.024;2022-09-27T17:36:39;3.00;;;2.13;;
38435;SDS011;24220;48.168;14.024;2022-09-27T17:39:10;2.78;;;1.80;;
38435;SDS011;24220;48.168;14.024;2022-09-27T17:41:42;2.85;;;2.25;;
38435;SDS011;24220;48.168;14.024;2022-09-27T17:44:10;3.28;;;2.05;;
38435;SDS011;24220;48.168;14.024;2022-09-27T17:46:46;2.78;;;1.92;;
38435;SDS011;24220;48.168;14.024;2022-09-27T17:49:33;2.15;;;1.58;;
38435;SDS011;24220;48.168;14.024;2022-09-27T17:52:22;2.28;;;1.77;;
38435;SDS011;24220;48.168;14.024;2022-09-27T17:54:56;2.30;;;1.77;;
38435;SDS011;24220;48.168;14.024;2022-09-27T17:57:24;6.70;;;1.70;;
38435;SDS011;24220;48.168;14.024;2022-09-27T17:59:57;2.50;;;1.40;;
38435;SDS011;24220;48.168;14.024;2022-09-27T18:02:24;1.75;;;1.50;;
38435;SDS011;24220;48.168;14.024;2022-09-27T18:04:52;2.90;;;1.30;;
38435;SDS011;24220;48.168;14.024;2022-09-27T18:07:20;4.00;;;1.80;;
38435;SDS011;24220;48.168;14.024;2022-09-27T18:09:47;1.80;;;1.40;;